sensor_id;sensor_type;location;lat;lon;timestamp;P1;durP1;ratioP1;P2;durP2;ratioP2
82038;SDS011;71610;42.628;23.378;2024-01-16T00:01:42;10.35;;;7.28;;
82038;SDS011;71610;42.628;23.378;2024-01-16T00:04:08;8.82;;;7.40;;
82038;SDS011;71610;42.628;23.378;2024-01-16T00:06:38;10.25;;;7.53;;
82038;SDS011;71610;42.628;23.378;2024-01-16T00:09:05;9.48;;;6.88;;
82038;SDS011;71610;42.628;23.378;2024-01-16T00:11:31;12.43;;;8.10;;
82038;SDS011;71610;42.628;23.378;2024-01-16T00:13:57;9.43;;;7.28;;
82038;SDS011;71610;42.628;23.378;2024-01-16T00:16:23;9.70;;;7.30;;
82038;SDS011;71610;42.628;23.378;2024-01-16T00:18:48;9.85;;;7.20;;
82038;SDS011;71610;42.628;23.378;2024-01-16T00:21:14;9.57;;;7.57;;
82038;SDS011;71610;42.628;23.378;2024-01-16T00:23:40;11.32;;;7.50;;
82038;SDS011;71610;42.628;23.378;2024-01-16T00:26:05;9.63;;;7.25;;
82038;SDS011;71610;42.628;23.378;2024-01-16T00:28:31;10.85;;;7.60;;
82038;SDS011;71610;42.628;23.378;2024-01-16T00:30:57;9.95;;;7.70;;
82038;SDS011;71610;42.628;23.378;2024-01-16T00:33:23;8.73;;;7.15;;
82038;SDS011;71610;42.628;23.378;2024-01-16T00:35:49;9.80;;;7.28;;
82038;SDS011;71610;42.628;23.378;2024-01-16T00:38:16;8.30;;;6.97;;
82038;SDS011;71610;42.628;23.378;2024-01-16T00:40:41;10.35;;;7.45;;
82038;SDS011;71610;42.628;23.378;2024-01-16T00:43:07;8.60;;;6.90;;
82038;SDS011;71610;42.628;23.378;2024-01-16T00:45:33;9.20;;;7.25;;
82038;SDS011;71610;42.628;23.378;2024-01-16T00:47:59;9.82;;;7.00;;
82038;SDS011;71610;42.628;23.378;2024-01-16T00:50:25;9.20;;;7.05;;
82038;SDS011;71610;42.628;23.378;2024-01-16T00:52:51;8.25;;;6.75;;
82038;SDS011;71610;42.628;23.378;2024-01-16T00:55:17;9.68;;;7.25;;
82038;SDS011;71610;42.628;23.378;2024-01-16T00:57:43;9.23;;;6.97;;
82038;SDS011;71610;42.628;23.378;2024-01-16T01:00:08;7.63;;;6.30;;
82038;SDS011;71610;42.628;23.378;2024-01-16T01:02:36;8.88;;;6.70;;
82038;SDS011;71610;42.628;23.378;2024-01-16T01:05:02;8.90;;;6.50;;
82038;SDS011;71610;42.628;23.378;2024-01-16T01:07:28;7.95;;;6.93;;
82038;SDS011;71610;42.628;23.378;2024-01-16T01:09:54;9.65;;;6.50;;
82038;SDS011;71610;42.628;23.378;2024-01-16T01:12:19;7.93;;;6.55;;
82038;SDS011;71610;42.628;23.378;2024-01-16T01:14:45;7.55;;;6.25;;
82038;SDS011;71610;42.628;23.378;2024-01-16T01:17:11;7.95;;;6.60;;
82038;SDS011;71610;42.628;23.378;2024-01-16T01:19:36;7.80;;;6.03;;
82038;SDS011;71610;42.628;23.378;2024-01-16T01:22:02;8.80;;;6.57;;
82038;SDS011;71610;42.628;23.378;2024-01-16T01:24:28;6.97;;;6.05;;
82038;SDS011;71610;42.628;23.378;2024-01-16T01:26:54;7.72;;;6.07;;
82038;SDS011;71610;42.628;23.378;2024-01-16T01:29:20;7.55;;;6.30;;
82038;SDS011;71610;42.628;23.378;2024-01-16T01:31:46;9.70;;;6.38;;
82038;SDS011;71610;42.628;23.378;2024-01-16T01:34:15;10.05;;;6.38;;
82038;SDS011;71610;42.628;23.378;2024-01-16T01:36:40;9.23;;;6.50;;
82038;SDS011;71610;42.628;23.378;2024-01-16T01:39:08;8.15;;;5.97;;
82038;SDS011;71610;42.628;23.378;2024-01-16T01:41:34;7.18;;;5.97;;
82038;SDS011;71610;42.628;23.378;2024-01-16T01:43:59;7.80;;;6.05;;
82038;SDS011;71610;42.628;23.378;2024-01-16T01:46:25;10.25;;;6.80;;
82038;SDS011;71610;42.628;23.378;2024-01-16T01:48:52;8.45;;;6.50;;
82038;SDS011;71610;42.628;23.378;2024-01-16T01:51:18;7.47;;;6.35;;
82038;SDS011;71610;42.628;23.378;2024-01-16T01:53:45;9.10;;;6.50;;
82038;SDS011;71610;42.628;23.378;2024-01-16T01:56:16;7.97;;;6.30;;
82038;SDS011;71610;42.628;23.378;2024-01-16T01:58:45;7.28;;;6.20;;
82038;SDS011;71610;42.628;23.378;2024-01-16T02:01:13;7.07;;;5.63;;
82038;SDS011;71610;42.628;23.378;2024-01-16T02:03:41;7.57;;;6.05;;
82038;SDS011;71610;42.628;23.378;2024-01-16T02:06:10;6.85;;;5.88;;
82038;SDS011;71610;42.628;23.378;2024-01-16T02:08:36;9.20;;;6.22;;
82038;SDS011;71610;42.628;23.378;2024-01-16T02:11:02;7.50;;;6.00;;
82038;SDS011;71610;42.628;23.378;2024-01-16T02:13:29;7.53;;;5.95;;
82038;SDS011;71610;42.628;23.378;2024-01-16T02:15:54;7.18;;;6.13;;
82038;SDS011;71610;42.628;23.378;2024-01-16T02:18:20;6.22;;;5.28;;
82038;SDS011;71610;42.628;23.378;2024-01-16T02:20:46;7.43;;;5.95;;
82038;SDS011;71610;42.628;23.378;2024-01-16T02:23:13;7.32;;;5.65;;
82038;SDS011;71610;42.628;23.378;2024-01-16T02:25:41;5.93;;;5.30;;
82038;SDS011;71610;42.628;23.378;2024-01-16T02:28:07;7.72;;;5.75;;
82038;SDS011;71610;42.628;23.378;2024-01-16T02:30:33;6.18;;;5.40;;
82038;SDS011;71610;42.628;23.378;2024-01-16T02:32:59;6.28;;;5.43;;
82038;SDS011;71610;42.628;23.378;2024-01-16T02:35:24;7.28;;;5.68;;
82038;SDS011;71610;42.628;23.378;2024-01-16T02:37:50;6.05;;;5.43;;
82038;SDS011;71610;42.628;23.378;2024-01-16T02:40:16;5.50;;;5.00;;
82038;SDS011;71610;42.628;23.378;2024-01-16T02:42:42;6.78;;;5.57;;
82038;SDS011;71610;42.628;23.378;2024-01-16T02:45:08;6.72;;;5.38;;
82038;SDS011;71610;42.628;23.378;2024-01-16T02:47:34;6.72;;;5.65;;
82038;SDS011;71610;42.628;23.378;2024-01-16T02:50:00;6.93;;;5.43;;
82038;SDS011;71610;42.628;23.378;2024-01-16T02:52:26;6.43;;;5.45;;
82038;SDS011;71610;42.628;23.378;2024-01-16T02:54:52;6.03;;;5.43;;
82038;SDS011;71610;42.628;23.378;2024-01-16T02:57:17;6.03;;;5.28;;
82038;SDS011;71610;42.628;23.378;2024-01-16T02:59:43;6.95;;;5.30;;
82038;SDS011;71610;42.628;23.378;2024-01-16T03:02:09;6.72;;;4.82;;
82038;SDS011;71610;42.628;23.378;2024-01-16T03:04:36;7.32;;;5.25;;
82038;SDS011;71610;42.628;23.378;2024-01-16T03:07:02;7.22;;;5.68;;
82038;SDS011;71610;42.628;23.378;2024-01-16T03:09:28;5.43;;;4.60;;
82038;SDS011;71610;42.628;23.378;2024-01-16T03:11:54;5.88;;;5.07;;
82038;SDS011;71610;42.628;23.378;2024-01-16T03:14:20;5.47;;;4.80;;
82038;SDS011;71610;42.628;23.378;2024-01-16T03:16:46;5.90;;;5.30;;
82038;SDS011;71610;42.628;23.378;2024-01-16T03:19:12;6.95;;;4.75;;
82038;SDS011;71610;42.628;23.378;2024-01-16T03:21:38;6.18;;;5.07;;
82038;SDS011;71610;42.628;23.378;2024-01-16T03:24:06;5.90;;;5.30;;
82038;SDS011;71610;42.628;23.378;2024-01-16T03:26:32;6.15;;;4.82;;
82038;SDS011;71610;42.628;23.378;2024-01-16T03:28:58;5.90;;;5.25;;
82038;SDS011;71610;42.628;23.378;2024-01-16T03:31:24;5.53;;;4.55;;
82038;SDS011;71610;42.628;23.378;2024-01-16T03:33:50;5.43;;;4.65;;
82038;SDS011;71610;42.628;23.378;2024-01-16T03:36:16;5.43;;;4.63;;
82038;SDS011;71610;42.628;23.378;2024-01-16T03:38:42;5.55;;;4.70;;
82038;SDS011;71610;42.628;23.378;2024-01-16T03:41:08;4.75;;;4.35;;
82038;SDS011;71610;42.628;23.378;2024-01-16T03:43:36;6.05;;;4.97;;
82038;SDS011;71610;42.628;23.378;2024-01-16T03:46:01;5.50;;;4.78;;
82038;SDS011;71610;42.628;23.378;2024-01-16T03:48:27;5.38;;;4.82;;
82038;SDS011;71610;42.628;23.378;2024-01-16T03:50:53;5.13;;;4.53;;
82038;SDS011;71610;42.628;23.378;2024-01-16T03:53:19;5.05;;;4.55;;
82038;SDS011;71610;42.628;23.378;2024-01-16T03:55:46;5.95;;;4.75;;
82038;SDS011;71610;42.628;23.378;2024-01-16T03:58:13;4.75;;;4.35;;
82038;SDS011;71610;42.628;23.378;2024-01-16T04:00:38;5.40;;;4.70;;
82038;SDS011;71610;42.628;23.378;2024-01-16T04:03:04;5.22;;;4.40;;
82038;SDS011;71610;42.628;23.378;2024-01-16T04:05:32;5.00;;;4.40;;
82038;SDS011;71610;42.628;23.378;2024-01-16T04:07:58;4.95;;;4.45;;
82038;SDS011;71610;42.628;23.378;2024-01-16T04:10:23;4.80;;;4.30;;
82038;SDS011;71610;42.628;23.378;2024-01-16T04:12:49;5.57;;;4.07;;
82038;SDS011;71610;42.628;23.378;2024-01-16T04:15:15;5.57;;;4.95;;
82038;SDS011;71610;42.628;23.378;2024-01-16T04:17:41;5.25;;;4.13;;
82038;SDS011;71610;42.628;23.378;2024-01-16T04:20:07;4.80;;;4.30;;
82038;SDS011;71610;42.628;23.378;2024-01-16T04:22:34;4.80;;;4.18;;
82038;SDS011;71610;42.628;23.378;2024-01-16T04:25:00;4.55;;;4.00;;
82038;SDS011;71610;42.628;23.378;2024-01-16T04:27:25;5.43;;;4.13;;
82038;SDS011;71610;42.628;23.378;2024-01-16T04:29:51;4.70;;;4.30;;
82038;SDS011;71610;42.628;23.378;2024-01-16T04:32:17;4.90;;;4.10;;
82038;SDS011;71610;42.628;23.378;2024-01-16T04:34:43;4.88;;;3.63;;
82038;SDS011;71610;42.628;23.378;2024-01-16T04:37:08;4.18;;;3.78;;
82038;SDS011;71610;42.628;23.378;2024-01-16T04:39:34;4.32;;;3.92;;
82038;SDS011;71610;42.628;23.378;2024-01-16T04:42:00;4.10;;;3.63;;
82038;SDS011;71610;42.628;23.378;2024-01-16T04:44:25;4.00;;;3.60;;
82038;SDS011;71610;42.628;23.378;2024-01-16T04:46:51;4.00;;;3.55;;
82038;SDS011;71610;42.628;23.378;2024-01-16T04:49:17;4.00;;;3.70;;
82038;SDS011;71610;42.628;23.378;2024-01-16T04:51:43;3.92;;;3.63;;
82038;SDS011;71610;42.628;23.378;2024-01-16T04:54:10;3.97;;;3.60;;
82038;SDS011;71610;42.628;23.378;2024-01-16T04:56:37;4.50;;;3.88;;
82038;SDS011;71610;42.628;23.378;2024-01-16T04:59:03;3.72;;;3.40;;
82038;SDS011;71610;42.628;23.378;2024-01-16T05:01:29;3.58;;;3.08;;
82038;SDS011;71610;42.628;23.378;2024-01-16T05:03:54;3.22;;;3.00;;
82038;SDS011;71610;42.628;23.378;2024-01-16T05:06:20;3.30;;;3.00;;
82038;SDS011;71610;42.628;23.378;2024-01-16T05:08:46;5.10;;;2.97;;
82038;SDS011;71610;42.628;23.378;2024-01-16T05:11:12;3.40;;;2.60;;
82038;SDS011;71610;42.628;23.378;2024-01-16T05:13:38;2.20;;;2.00;;
82038;SDS011;71610;42.628;23.378;2024-01-16T05:16:04;4.88;;;2.35;;
82038;SDS011;71610;42.628;23.378;2024-01-16T05:18:30;2.38;;;2.17;;
82038;SDS011;71610;42.628;23.378;2024-01-16T05:20:57;2.20;;;2.00;;
82038;SDS011;71610;42.628;23.378;2024-01-16T05:23:23;2.65;;;2.40;;
82038;SDS011;71610;42.628;23.378;2024-01-16T05:25:49;2.20;;;2.00;;
82038;SDS011;71610;42.628;23.378;2024-01-16T05:28:15;3.38;;;2.05;;
82038;SDS011;71610;42.628;23.378;2024-01-16T05:30:41;2.35;;;2.10;;
82038;SDS011;71610;42.628;23.378;2024-01-16T05:33:07;5.30;;;2.20;;
82038;SDS011;71610;42.628;23.378;2024-01-16T05:35:33;3.55;;;2.33;;
82038;SDS011;71610;42.628;23.378;2024-01-16T05:37:59;3.72;;;2.10;;
82038;SDS011;71610;42.628;23.378;2024-01-16T05:40:25;2.17;;;1.95;;
82038;SDS011;71610;42.628;23.378;2024-01-16T05:42:51;3.90;;;2.00;;
82038;SDS011;71610;42.628;23.378;2024-01-16T05:45:17;3.28;;;1.92;;
82038;SDS011;71610;42.628;23.378;2024-01-16T05:47:43;6.60;;;2.42;;
82038;SDS011;71610;42.628;23.378;2024-01-16T05:50:09;8.27;;;2.13;;
82038;SDS011;71610;42.628;23.378;2024-01-16T05:52:35;8.73;;;2.13;;
82038;SDS011;71610;42.628;23.378;2024-01-16T05:55:01;11.48;;;2.10;;
82038;SDS011;71610;42.628;23.378;2024-01-16T05:57:28;7.40;;;2.13;;
82038;SDS011;71610;42.628;23.378;2024-01-16T05:59:57;12.98;;;2.17;;
82038;SDS011;71610;42.628;23.378;2024-01-16T06:02:23;6.90;;;2.00;;
82038;SDS011;71610;42.628;23.378;2024-01-16T06:04:49;20.77;;;2.53;;
82038;SDS011;71610;42.628;23.378;2024-01-16T06:07:15;16.75;;;2.13;;
82038;SDS011;71610;42.628;23.378;2024-01-16T06:09:41;16.25;;;2.38;;
82038;SDS011;71610;42.628;23.378;2024-01-16T06:12:07;28.52;;;2.30;;
82038;SDS011;71610;42.628;23.378;2024-01-16T06:14:33;14.82;;;2.38;;
82038;SDS011;71610;42.628;23.378;2024-01-16T06:16:59;9.80;;;1.80;;
82038;SDS011;71610;42.628;23.378;2024-01-16T06:19:25;15.80;;;1.98;;
82038;SDS011;71610;42.628;23.378;2024-01-16T06:21:51;13.60;;;2.20;;
82038;SDS011;71610;42.628;23.378;2024-01-16T06:24:17;12.00;;;1.90;;
82038;SDS011;71610;42.628;23.378;2024-01-16T06:26:42;10.32;;;1.70;;
82038;SDS011;71610;42.628;23.378;2024-01-16T06:29:08;15.98;;;2.13;;
82038;SDS011;71610;42.628;23.378;2024-01-16T06:31:34;12.80;;;1.90;;
82038;SDS011;71610;42.628;23.378;2024-01-16T06:34:00;9.02;;;1.40;;
82038;SDS011;71610;42.628;23.378;2024-01-16T06:36:25;7.25;;;1.70;;
82038;SDS011;71610;42.628;23.378;2024-01-16T06:38:51;15.93;;;1.90;;
82038;SDS011;71610;42.628;23.378;2024-01-16T06:41:17;11.50;;;1.85;;
82038;SDS011;71610;42.628;23.378;2024-01-16T06:43:43;14.07;;;1.85;;
82038;SDS011;71610;42.628;23.378;2024-01-16T06:46:09;5.95;;;1.58;;
82038;SDS011;71610;42.628;23.378;2024-01-16T06:48:35;15.50;;;2.33;;
82038;SDS011;71610;42.628;23.378;2024-01-16T06:51:04;16.17;;;1.80;;
82038;SDS011;71610;42.628;23.378;2024-01-16T06:53:30;14.75;;;2.20;;
82038;SDS011;71610;42.628;23.378;2024-01-16T06:55:56;13.85;;;1.95;;
82038;SDS011;71610;42.628;23.378;2024-01-16T06:58:22;14.10;;;2.28;;
82038;SDS011;71610;42.628;23.378;2024-01-16T07:00:47;30.92;;;2.05;;
82038;SDS011;71610;42.628;23.378;2024-01-16T07:03:13;14.25;;;2.15;;
82038;SDS011;71610;42.628;23.378;2024-01-16T07:05:39;8.30;;;1.73;;
82038;SDS011;71610;42.628;23.378;2024-01-16T07:08:06;12.35;;;1.95;;
82038;SDS011;71610;42.628;23.378;2024-01-16T07:10:33;9.70;;;1.77;;
82038;SDS011;71610;42.628;23.378;2024-01-16T07:12:59;25.90;;;2.30;;
82038;SDS011;71610;42.628;23.378;2024-01-16T07:15:25;14.35;;;2.00;;
82038;SDS011;71610;42.628;23.378;2024-01-16T07:17:51;15.45;;;1.83;;
82038;SDS011;71610;42.628;23.378;2024-01-16T07:20:17;14.57;;;1.90;;
82038;SDS011;71610;42.628;23.378;2024-01-16T07:22:42;8.38;;;1.70;;
82038;SDS011;71610;42.628;23.378;2024-01-16T07:25:08;9.52;;;1.73;;
82038;SDS011;71610;42.628;23.378;2024-01-16T07:27:34;11.23;;;1.77;;
82038;SDS011;71610;42.628;23.378;2024-01-16T07:30:00;13.85;;;2.00;;
82038;SDS011;71610;42.628;23.378;2024-01-16T07:32:26;8.80;;;1.80;;
82038;SDS011;71610;42.628;23.378;2024-01-16T07:34:52;10.23;;;1.48;;
82038;SDS011;71610;42.628;23.378;2024-01-16T07:37:18;14.50;;;2.10;;
82038;SDS011;71610;42.628;23.378;2024-01-16T07:39:44;11.32;;;1.83;;
82038;SDS011;71610;42.628;23.378;2024-01-16T07:42:10;11.02;;;2.08;;
82038;SDS011;71610;42.628;23.378;2024-01-16T07:44:36;11.25;;;1.42;;
82038;SDS011;71610;42.628;23.378;2024-01-16T07:47:02;8.82;;;1.65;;
82038;SDS011;71610;42.628;23.378;2024-01-16T07:49:28;11.73;;;1.85;;
82038;SDS011;71610;42.628;23.378;2024-01-16T07:51:54;14.75;;;1.55;;
82038;SDS011;71610;42.628;23.378;2024-01-16T07:54:20;3.92;;;1.58;;
82038;SDS011;71610;42.628;23.378;2024-01-16T07:56:46;5.60;;;1.55;;
82038;SDS011;71610;42.628;23.378;2024-01-16T07:59:12;9.55;;;1.77;;
82038;SDS011;71610;42.628;23.378;2024-01-16T08:01:39;10.20;;;1.48;;
82038;SDS011;71610;42.628;23.378;2024-01-16T08:04:05;18.05;;;2.10;;
82038;SDS011;71610;42.628;23.378;2024-01-16T08:06:32;26.95;;;2.35;;
82038;SDS011;71610;42.628;23.378;2024-01-16T08:08:58;28.45;;;2.03;;
82038;SDS011;71610;42.628;23.378;2024-01-16T08:11:24;33.67;;;2.22;;
82038;SDS011;71610;42.628;23.378;2024-01-16T08:13:49;27.65;;;2.15;;
82038;SDS011;71610;42.628;23.378;2024-01-16T08:16:15;19.17;;;1.98;;
82038;SDS011;71610;42.628;23.378;2024-01-16T08:18:41;37.25;;;2.42;;
82038;SDS011;71610;42.628;23.378;2024-01-16T08:21:07;21.42;;;2.13;;
82038;SDS011;71610;42.628;23.378;2024-01-16T08:23:33;38.85;;;2.72;;
82038;SDS011;71610;42.628;23.378;2024-01-16T08:25:59;30.02;;;2.22;;
82038;SDS011;71610;42.628;23.378;2024-01-16T08:28:26;40.20;;;2.75;;
82038;SDS011;71610;42.628;23.378;2024-01-16T08:30:52;35.13;;;3.50;;
82038;SDS011;71610;42.628;23.378;2024-01-16T08:33:18;43.65;;;2.45;;
82038;SDS011;71610;42.628;23.378;2024-01-16T08:35:44;37.40;;;2.65;;
82038;SDS011;71610;42.628;23.378;2024-01-16T08:38:10;43.45;;;3.08;;
82038;SDS011;71610;42.628;23.378;2024-01-16T08:40:36;34.00;;;2.63;;
82038;SDS011;71610;42.628;23.378;2024-01-16T08:43:02;39.03;;;2.58;;
82038;SDS011;71610;42.628;23.378;2024-01-16T08:45:28;38.10;;;3.45;;
82038;SDS011;71610;42.628;23.378;2024-01-16T08:47:54;35.47;;;3.05;;
82038;SDS011;71610;42.628;23.378;2024-01-16T08:50:20;47.15;;;4.32;;
82038;SDS011;71610;42.628;23.378;2024-01-16T08:52:46;45.42;;;3.33;;
82038;SDS011;71610;42.628;23.378;2024-01-16T08:55:12;62.67;;;3.72;;
82038;SDS011;71610;42.628;23.378;2024-01-16T08:57:37;67.45;;;4.15;;
82038;SDS011;71610;42.628;23.378;2024-01-16T09:00:04;39.78;;;3.35;;
82038;SDS011;71610;42.628;23.378;2024-01-16T09:02:30;57.88;;;3.70;;
82038;SDS011;71610;42.628;23.378;2024-01-16T09:04:56;65.60;;;3.92;;
82038;SDS011;71610;42.628;23.378;2024-01-16T09:07:23;72.07;;;4.03;;
82038;SDS011;71610;42.628;23.378;2024-01-16T09:09:50;53.03;;;3.92;;
82038;SDS011;71610;42.628;23.378;2024-01-16T09:12:15;73.78;;;4.95;;
82038;SDS011;71610;42.628;23.378;2024-01-16T09:14:41;57.10;;;3.90;;
82038;SDS011;71610;42.628;23.378;2024-01-16T09:17:07;70.05;;;4.82;;
82038;SDS011;71610;42.628;23.378;2024-01-16T09:19:33;45.47;;;3.70;;
82038;SDS011;71610;42.628;23.378;2024-01-16T09:21:59;65.85;;;3.63;;
82038;SDS011;71610;42.628;23.378;2024-01-16T09:24:24;48.78;;;4.30;;
82038;SDS011;71610;42.628;23.378;2024-01-16T09:26:50;43.88;;;4.15;;
82038;SDS011;71610;42.628;23.378;2024-01-16T09:29:16;63.95;;;3.97;;
82038;SDS011;71610;42.628;23.378;2024-01-16T09:31:42;64.47;;;4.32;;
82038;SDS011;71610;42.628;23.378;2024-01-16T09:34:07;60.35;;;4.10;;
82038;SDS011;71610;42.628;23.378;2024-01-16T09:36:33;52.30;;;3.72;;
82038;SDS011;71610;42.628;23.378;2024-01-16T09:39:03;35.33;;;2.85;;
82038;SDS011;71610;42.628;23.378;2024-01-16T09:41:33;59.28;;;3.22;;
82038;SDS011;71610;42.628;23.378;2024-01-16T09:43:59;16.52;;;2.70;;
82038;SDS011;71610;42.628;23.378;2024-01-16T09:46:25;23.73;;;3.33;;
82038;SDS011;71610;42.628;23.378;2024-01-16T09:48:54;22.38;;;2.70;;
82038;SDS011;71610;42.628;23.378;2024-01-16T09:51:21;33.42;;;2.80;;
82038;SDS011;71610;42.628;23.378;2024-01-16T09:53:47;26.67;;;2.70;;
82038;SDS011;71610;42.628;23.378;2024-01-16T09:56:16;28.70;;;2.50;;
82038;SDS011;71610;42.628;23.378;2024-01-16T09:58:45;41.03;;;3.20;;
82038;SDS011;71610;42.628;23.378;2024-01-16T10:01:15;30.47;;;2.57;;
82038;SDS011;71610;42.628;23.378;2024-01-16T10:03:44;15.90;;;1.88;;
82038;SDS011;71610;42.628;23.378;2024-01-16T10:06:10;20.45;;;3.67;;
82038;SDS011;71610;42.628;23.378;2024-01-16T10:08:37;23.75;;;2.72;;
82038;SDS011;71610;42.628;23.378;2024-01-16T10:11:04;22.73;;;2.20;;
82038;SDS011;71610;42.628;23.378;2024-01-16T10:13:30;18.20;;;2.97;;
82038;SDS011;71610;42.628;23.378;2024-01-16T10:15:57;19.02;;;2.42;;
82038;SDS011;71610;42.628;23.378;2024-01-16T10:18:28;26.08;;;2.13;;
82038;SDS011;71610;42.628;23.378;2024-01-16T10:20:59;27.13;;;2.65;;
82038;SDS011;71610;42.628;23.378;2024-01-16T10:23:25;40.15;;;3.35;;
82038;SDS011;71610;42.628;23.378;2024-01-16T10:28:50;20.73;;;2.92;;
82038;SDS011;71610;42.628;23.378;2024-01-16T10:31:15;12.57;;;2.55;;
82038;SDS011;71610;42.628;23.378;2024-01-16T10:33:41;23.90;;;3.08;;
82038;SDS011;71610;42.628;23.378;2024-01-16T10:36:10;19.25;;;2.55;;
82038;SDS011;71610;42.628;23.378;2024-01-16T10:38:37;22.85;;;2.65;;
82038;SDS011;71610;42.628;23.378;2024-01-16T10:41:10;13.68;;;2.30;;
82038;SDS011;71610;42.628;23.378;2024-01-16T10:43:38;16.45;;;2.83;;
82038;SDS011;71610;42.628;23.378;2024-01-16T10:46:11;12.52;;;2.03;;
82038;SDS011;71610;42.628;23.378;2024-01-16T10:48:44;15.32;;;2.80;;
82038;SDS011;71610;42.628;23.378;2024-01-16T10:51:23;35.35;;;2.42;;
82038;SDS011;71610;42.628;23.378;2024-01-16T10:53:50;17.58;;;2.53;;
82038;SDS011;71610;42.628;23.378;2024-01-16T10:56:22;6.03;;;2.00;;
82038;SDS011;71610;42.628;23.378;2024-01-16T10:58:51;16.80;;;2.55;;
82038;SDS011;71610;42.628;23.378;2024-01-16T11:01:23;17.85;;;2.83;;
82038;SDS011;71610;42.628;23.378;2024-01-16T11:03:50;11.02;;;2.55;;
82038;SDS011;71610;42.628;23.378;2024-01-16T11:06:18;10.80;;;2.95;;
82038;SDS011;71610;42.628;23.378;2024-01-16T11:08:47;9.25;;;2.13;;
82038;SDS011;71610;42.628;23.378;2024-01-16T11:11:14;7.78;;;2.10;;
82038;SDS011;71610;42.628;23.378;2024-01-16T11:13:41;11.80;;;2.20;;
82038;SDS011;71610;42.628;23.378;2024-01-16T11:16:12;9.02;;;2.10;;
82038;SDS011;71610;42.628;23.378;2024-01-16T11:18:38;8.88;;;2.20;;
82038;SDS011;71610;42.628;23.378;2024-01-16T11:21:11;6.70;;;2.03;;
82038;SDS011;71610;42.628;23.378;2024-01-16T11:23:38;9.27;;;2.10;;
82038;SDS011;71610;42.628;23.378;2024-01-16T11:31:52;5.80;;;2.55;;
82038;SDS011;71610;42.628;23.378;2024-01-16T11:37:12;7.10;;;1.98;;
82038;SDS011;71610;42.628;23.378;2024-01-16T11:39:38;8.00;;;2.00;;
82038;SDS011;71610;42.628;23.378;2024-01-16T11:42:07;6.85;;;1.88;;
82038;SDS011;71610;42.628;23.378;2024-01-16T11:47:08;5.82;;;2.08;;
82038;SDS011;71610;42.628;23.378;2024-01-16T11:49:44;12.30;;;3.22;;
82038;SDS011;71610;42.628;23.378;2024-01-16T11:52:11;4.32;;;1.50;;
82038;SDS011;71610;42.628;23.378;2024-01-16T11:54:38;5.80;;;1.58;;
82038;SDS011;71610;42.628;23.378;2024-01-16T12:00:00;9.65;;;1.90;;
82038;SDS011;71610;42.628;23.378;2024-01-16T12:02:52;5.75;;;1.80;;
82038;SDS011;71610;42.628;23.378;2024-01-16T12:05:20;8.02;;;1.90;;
82038;SDS011;71610;42.628;23.378;2024-01-16T12:07:50;6.03;;;1.65;;
82038;SDS011;71610;42.628;23.378;2024-01-16T12:10:18;5.32;;;1.95;;
82038;SDS011;71610;42.628;23.378;2024-01-16T12:12:45;2.92;;;1.60;;
82038;SDS011;71610;42.628;23.378;2024-01-16T12:15:18;10.07;;;1.70;;
82038;SDS011;71610;42.628;23.378;2024-01-16T12:18:06;5.45;;;1.50;;
82038;SDS011;71610;42.628;23.378;2024-01-16T12:20:32;8.65;;;2.13;;
82038;SDS011;71610;42.628;23.378;2024-01-16T12:22:59;8.98;;;2.25;;
82038;SDS011;71610;42.628;23.378;2024-01-16T12:27:59;6.97;;;1.95;;
82038;SDS011;71610;42.628;23.378;2024-01-16T12:30:29;8.82;;;2.00;;
82038;SDS011;71610;42.628;23.378;2024-01-16T12:35:44;6.10;;;2.45;;
82038;SDS011;71610;42.628;23.378;2024-01-16T12:38:13;6.15;;;1.92;;
82038;SDS011;71610;42.628;23.378;2024-01-16T12:40:45;4.30;;;1.67;;
82038;SDS011;71610;42.628;23.378;2024-01-16T12:43:13;4.43;;;1.83;;
82038;SDS011;71610;42.628;23.378;2024-01-16T12:45:39;4.22;;;1.80;;
82038;SDS011;71610;42.628;23.378;2024-01-16T12:48:04;5.85;;;1.80;;
82038;SDS011;71610;42.628;23.378;2024-01-16T12:50:31;7.05;;;1.63;;
82038;SDS011;71610;42.628;23.378;2024-01-16T12:53:01;12.38;;;1.95;;
82038;SDS011;71610;42.628;23.378;2024-01-16T12:55:27;16.02;;;2.20;;
82038;SDS011;71610;42.628;23.378;2024-01-16T13:00:48;13.70;;;2.42;;
82038;SDS011;71610;42.628;23.378;2024-01-16T13:03:15;13.20;;;1.90;;
82038;SDS011;71610;42.628;23.378;2024-01-16T13:05:44;17.15;;;2.10;;
82038;SDS011;71610;42.628;23.378;2024-01-16T13:08:18;11.93;;;2.20;;
82038;SDS011;71610;42.628;23.378;2024-01-16T13:11:01;12.77;;;2.13;;
82038;SDS011;71610;42.628;23.378;2024-01-16T13:13:30;7.22;;;1.90;;
82038;SDS011;71610;42.628;23.378;2024-01-16T13:15:57;12.70;;;1.90;;
82038;SDS011;71610;42.628;23.378;2024-01-16T13:18:24;18.48;;;2.25;;
82038;SDS011;71610;42.628;23.378;2024-01-16T13:20:51;23.77;;;2.53;;
82038;SDS011;71610;42.628;23.378;2024-01-16T13:23:18;13.05;;;2.00;;
82038;SDS011;71610;42.628;23.378;2024-01-16T13:25:46;17.63;;;2.50;;
82038;SDS011;71610;42.628;23.378;2024-01-16T13:28:14;12.98;;;2.03;;
82038;SDS011;71610;42.628;23.378;2024-01-16T13:30:41;28.17;;;2.65;;
82038;SDS011;71610;42.628;23.378;2024-01-16T13:33:08;9.98;;;2.17;;
82038;SDS011;71610;42.628;23.378;2024-01-16T13:35:34;30.90;;;3.03;;
82038;SDS011;71610;42.628;23.378;2024-01-16T13:38:04;20.70;;;3.17;;
82038;SDS011;71610;42.628;23.378;2024-01-16T13:40:30;12.23;;;2.30;;
82038;SDS011;71610;42.628;23.378;2024-01-16T13:42:57;21.90;;;2.20;;
82038;SDS011;71610;42.628;23.378;2024-01-16T13:45:22;20.65;;;2.47;;
82038;SDS011;71610;42.628;23.378;2024-01-16T13:47:48;15.82;;;2.47;;
82038;SDS011;71610;42.628;23.378;2024-01-16T13:50:14;18.27;;;2.33;;
82038;SDS011;71610;42.628;23.378;2024-01-16T13:52:40;7.60;;;2.25;;
82038;SDS011;71610;42.628;23.378;2024-01-16T13:55:06;31.92;;;2.75;;
82038;SDS011;71610;42.628;23.378;2024-01-16T13:57:32;20.50;;;2.20;;
82038;SDS011;71610;42.628;23.378;2024-01-16T14:00:02;20.35;;;3.30;;
82038;SDS011;71610;42.628;23.378;2024-01-16T14:02:29;14.63;;;2.88;;
82038;SDS011;71610;42.628;23.378;2024-01-16T14:04:55;20.45;;;3.22;;
82038;SDS011;71610;42.628;23.378;2024-01-16T14:07:22;28.38;;;2.40;;
82038;SDS011;71610;42.628;23.378;2024-01-16T14:09:48;31.60;;;2.45;;
82038;SDS011;71610;42.628;23.378;2024-01-16T14:12:13;19.45;;;2.42;;
82038;SDS011;71610;42.628;23.378;2024-01-16T14:14:40;17.17;;;2.70;;
82038;SDS011;71610;42.628;23.378;2024-01-16T14:17:06;22.27;;;3.83;;
82038;SDS011;71610;42.628;23.378;2024-01-16T14:19:34;32.35;;;3.03;;
82038;SDS011;71610;42.628;23.378;2024-01-16T14:22:00;29.52;;;3.50;;
82038;SDS011;71610;42.628;23.378;2024-01-16T14:24:26;54.13;;;3.63;;
82038;SDS011;71610;42.628;23.378;2024-01-16T14:26:51;29.98;;;3.50;;
82038;SDS011;71610;42.628;23.378;2024-01-16T14:29:17;41.90;;;3.95;;
82038;SDS011;71610;42.628;23.378;2024-01-16T14:31:43;52.03;;;3.95;;
82038;SDS011;71610;42.628;23.378;2024-01-16T14:36:39;35.90;;;3.50;;
82038;SDS011;71610;42.628;23.378;2024-01-16T14:39:06;35.55;;;3.67;;
82038;SDS011;71610;42.628;23.378;2024-01-16T14:41:38;39.17;;;3.33;;
82038;SDS011;71610;42.628;23.378;2024-01-16T14:44:04;53.83;;;3.83;;
82038;SDS011;71610;42.628;23.378;2024-01-16T14:46:31;39.15;;;4.07;;
82038;SDS011;71610;42.628;23.378;2024-01-16T14:48:58;50.05;;;4.68;;
82038;SDS011;71610;42.628;23.378;2024-01-16T14:51:23;37.13;;;3.55;;
82038;SDS011;71610;42.628;23.378;2024-01-16T14:53:50;49.22;;;4.10;;